Time;durP1;ratioP1;P1;durP2;ratioP2;P2;SDS_P1;SDS_P2;PMS_P1;PMS_P2;Temp;Humidity;BMP_temperature;BMP_pressure;BME280_temperature;BME280_humidity;BME280_pressure;Samples;Min_cycle;Max_cycle;Signal;HPM_P1;HPM_P2
2022/09/01 00:00:34;;;;;;;;;;;;;;;19.89;60.88;100410.22;5408393;32;34350;-67
2022/09/01 00:03:36;;;;;;;;;;;;;;;20.24;61.43;100418.16;5382749;32;35485;-67
2022/09/01 00:06:39;;;;;;;;;;;;;;;19.21;65.30;100407.34;5410897;32;36080;-67
2022/09/01 00:09:41;;;;;;;;;;;;;;;19.09;65.41;100402.09;5394705;32;35673;-67
2022/09/01 00:12:44;;;;;;;;;;;;;;;19.00;65.02;100405.41;5415202;32;34591;-74
2022/09/01 00:15:46;;;;;;;;;;;;;;;19.41;64.13;100405.84;5395056;32;34382;-66
2022/09/01 00:18:49;;;;;;;;;;;;;;;20.07;65.27;100405.28;5399198;32;34400;-75
2022/09/01 00:21:51;;;;;;;;;;;;;;;18.86;66.49;100414.41;5403578;32;34380;-67
2022/09/01 00:24:53;;;;;;;;;;;;;;;19.30;65.30;100416.44;5387680;32;35603;-75
2022/09/01 00:27:59;;;;;;;;;;;;;;;19.12;68.03;100420.47;5403624;32;34410;-75
2022/09/01 00:31:01;;;;;;;;;;;;;;;19.78;65.92;100431.56;5382545;32;44487;-74
2022/09/01 00:34:03;;;;;;;;;;;;;;;19.46;65.85;100425.00;5405458;32;34182;-68
2022/09/01 00:37:05;;;;;;;;;;;;;;;20.23;67.04;100437.81;5391882;32;34286;-67
2022/09/01 00:40:08;;;;;;;;;;;;;;;19.04;69.52;100445.03;5398578;32;34469;-67
2022/09/01 00:43:11;;;;;;;;;;;;;;;18.31;71.78;100452.97;5403243;32;36042;-67
2022/09/01 00:46:17;;;;;;;;;;;;;;;18.47;73.12;100452.72;5391792;32;34392;-67
2022/09/01 00:49:28;;;;;;;;;;;;;;;18.46;72.82;100457.19;5408546;32;32927;-67
2022/09/01 00:52:37;;;;;;;;;;;;;;;17.93;76.11;100458.28;5392536;32;44667;-73
2022/09/01 00:55:39;;;;;;;;;;;;;;;18.84;73.09;100453.63;5413809;32;34347;-67
2022/09/01 00:58:41;;;;;;;;;;;;;;;18.13;73.60;100463.06;5397064;32;34282;-66
2022/09/01 01:01:43;;;;;;;;;;;;;;;18.38;76.02;100462.19;5377730;32;34350;-73
2022/09/01 01:04:46;;;;;;;;;;;;;;;18.21;74.80;100466.03;5388304;32;34731;-73
2022/09/01 01:07:48;;;;;;;;;;;;;;;17.75;75.77;100468.34;5384956;32;35616;-74
2022/09/01 01:10:49;;;;;;;;;;;;;;;18.49;72.34;100464.13;5403206;32;34916;-72
2022/09/01 01:13:53;;;;;;;;;;;;;;;19.53;70.79;100457.37;5394098;32;34824;-67
2022/09/01 01:16:55;;;;;;;;;;;;;;;18.87;70.69;100462.25;5394311;32;35528;-73
2022/09/01 01:23:27;;;;;;;;;;;;;;;18.69;69.87;100468.91;5381455;32;35549;-74
2022/09/01 01:26:28;;;;;;;;;;;;;;;18.18;70.16;100468.91;5419032;32;44643;-67
2022/09/01 01:29:31;;;;;;;;;;;;;;;18.03;73.80;100468.19;5382756;32;34293;-73
2022/09/01 01:32:34;;;;;;;;;;;;;;;18.53;73.93;100466.44;5402395;32;34119;-72
2022/09/01 01:35:36;;;;;;;;;;;;;;;18.66;74.05;100450.44;5385749;32;35490;-72
2022/09/01 01:38:41;;;;;;;;;;;;;;;19.16;71.76;100452.12;5380430;32;36100;-73
2022/09/01 01:41:47;;;;;;;;;;;;;;;18.99;69.62;100457.81;5420505;32;35659;-74
2022/09/01 01:44:49;;;;;;;;;;;;;;;19.00;70.76;100464.00;5391437;32;34682;-67
2022/09/01 01:47:55;;;;;;;;;;;;;;;19.39;69.74;100461.09;5399522;32;35467;-66
2022/09/01 01:50:58;;;;;;;;;;;;;;;19.18;69.99;100467.97;5390602;32;34377;-73
2022/09/01 01:54:04;;;;;;;;;;;;;;;19.01;73.36;100460.41;5386632;32;45186;-67
2022/09/01 01:57:07;;;;;;;;;;;;;;;17.84;75.40;100462.41;5400100;32;34212;-66
2022/09/01 02:00:10;;;;;;;;;;;;;;;17.78;75.72;100462.84;5382775;32;34871;-66
2022/09/01 02:03:16;;;;;;;;;;;;;;;18.11;73.29;100454.34;5376596;32;34342;-67
2022/09/01 02:06:23;;;;;;;;;;;;;;;18.60;74.95;100456.19;5378233;32;34431;-67
2022/09/01 02:09:25;;;;;;;;;;;;;;;18.50;71.21;100448.03;5402798;32;34271;-67
2022/09/01 02:12:27;;;;;;;;;;;;;;;18.89;68.94;100441.69;5389321;32;44517;-73
2022/09/01 02:15:31;;;;;;;;;;;;;;;18.09;73.59;100446.44;5405171;32;35788;-74
2022/09/01 02:18:35;;;;;;;;;;;;;;;18.51;71.32;100427.59;5403826;32;35777;-72
2022/09/01 02:21:38;;;;;;;;;;;;;;;18.19;71.78;100420.06;5400708;32;34397;-67
2022/09/01 02:24:45;;;;;;;;;;;;;;;17.74;74.72;100424.97;5409703;32;34399;-66
2022/09/01 02:27:49;;;;;;;;;;;;;;;18.21;73.19;100426.13;5385467;32;34383;-67
2022/09/01 02:30:53;;;;;;;;;;;;;;;18.62;71.37;100422.34;5402078;32;36043;-68
2022/09/01 02:33:55;;;;;;;;;;;;;;;18.52;70.69;100423.97;5383973;32;36537;-67
2022/09/01 02:36:57;;;;;;;;;;;;;;;17.54;76.53;100434.25;5390491;32;43376;-73
2022/09/01 02:39:59;;;;;;;;;;;;;;;17.23;77.04;100435.44;5401796;32;35493;-73
2022/09/01 02:43:01;;;;;;;;;;;;;;;17.62;74.73;100427.56;5388227;32;34372;-67
2022/09/01 02:46:05;;;;;;;;;;;;;;;18.30;71.61;100424.66;5404903;32;35473;-67
2022/09/01 02:49:14;;;;;;;;;;;;;;;17.68;73.87;100416.53;5393684;32;34696;-67
2022/09/01 02:52:16;;;;;;;;;;;;;;;17.11;76.08;100409.69;5401626;32;34566;-68
2022/09/01 02:55:20;;;;;;;;;;;;;;;17.74;74.43;100403.69;5399474;32;35643;-73
2022/09/01 02:58:22;;;;;;;;;;;;;;;18.05;72.56;100405.09;5396044;32;37444;-66
2022/09/01 03:01:28;;;;;;;;;;;;;;;17.92;72.58;100406.91;5395304;32;34451;-66
2022/09/01 03:04:33;;;;;;;;;;;;;;;17.26;74.86;100408.69;5373438;32;44653;-66
2022/09/01 03:07:36;;;;;;;;;;;;;;;17.39;75.76;100407.84;5412683;32;35787;-73
2022/09/01 03:10:40;;;;;;;;;;;;;;;17.52;74.80;100404.28;5388563;32;34308;-67
2022/09/01 03:13:42;;;;;;;;;;;;;;;17.31;76.54;100401.25;5400863;32;34931;-73
2022/09/01 03:16:44;;;;;;;;;;;;;;;17.42;74.11;100397.03;5416090;32;35606;-66
2022/09/01 03:19:47;;;;;;;;;;;;;;;17.70;74.06;100401.31;5384952;32;34771;-74
2022/09/01 03:22:51;;;;;;;;;;;;;;;17.64;74.04;100391.94;5399884;32;35387;-73
2022/09/01 03:25:53;;;;;;;;;;;;;;;17.12;73.94;100397.25;5394627;32;34219;-68
2022/09/01 03:28:55;;;;;;;;;;;;;;;17.38;73.71;100396.37;5409683;32;33426;-65
2022/09/01 03:31:57;;;;;;;;;;;;;;;17.26;74.43;100387.44;5386256;32;44840;-73
2022/09/01 03:34:59;;;;;;;;;;;;;;;17.46;72.55;100393.22;5393979;32;36107;-66
2022/09/01 03:38:01;;;;;;;;;;;;;;;17.33;74.58;100404.66;5395411;32;34847;-75
2022/09/01 03:41:03;;;;;;;;;;;;;;;16.69;75.79;100414.16;5385897;32;34372;-74
2022/09/01 03:44:05;;;;;;;;;;;;;;;17.23;73.86;100416.84;5400190;32;35627;-74
2022/09/01 03:47:14;;;;;;;;;;;;;;;17.47;72.83;100422.34;5389424;32;34774;-74
2022/09/01 03:50:19;;;;;;;;;;;;;;;18.15;69.99;100429.22;5399552;32;34001;-68
2022/09/01 03:53:21;;;;;;;;;;;;;;;17.77;73.05;100429.19;5375698;32;34371;-74
2022/09/01 03:56:26;;;;;;;;;;;;;;;17.62;71.90;100433.72;5403305;32;34287;-67
2022/09/01 03:59:28;;;;;;;;;;;;;;;18.04;70.54;100415.84;5400895;32;44453;-74
2022/09/01 04:02:30;;;;;;;;;;;;;;;17.12;73.41;100406.06;5367949;32;34490;-67
2022/09/01 04:05:33;;;;;;;;;;;;;;;17.32;72.99;100407.41;5393767;32;36028;-74
2022/09/01 04:08:35;;;;;;;;;;;;;;;17.56;72.24;100396.94;5381881;32;34312;-66
2022/09/01 04:11:38;;;;;;;;;;;;;;;17.17;75.53;100401.31;5418449;32;35360;-73
2022/09/01 04:14:47;;;;;;;;;;;;;;;17.56;73.84;100396.94;5385534;32;35270;-66
2022/09/01 04:21:09;;;;;;;;;;;;;;;16.95;74.81;100401.03;5404847;32;35225;-68
2022/09/01 04:24:14;;;;;;;;;;;;;;;17.82;70.52;100406.66;5393879;32;35462;-73
2022/09/01 04:27:16;;;;;;;;;;;;;;;17.52;71.53;100406.09;5398040;32;34568;-66
2022/09/01 04:30:19;;;;;;;;;;;;;;;17.29;73.75;100413.78;5386998;32;35699;-67
2022/09/01 04:33:23;;;;;;;;;;;;;;;18.12;70.42;100416.16;5393230;32;34159;-74
2022/09/01 04:36:26;;;;;;;;;;;;;;;17.37;75.07;100410.63;5395475;32;35583;-73
2022/09/01 04:39:28;;;;;;;;;;;;;;;17.18;74.53;100413.63;5391253;32;44646;-75
2022/09/01 04:42:31;;;;;;;;;;;;;;;16.83;75.59;100410.66;5399276;32;34405;-67
2022/09/01 04:45:35;;;;;;;;;;;;;;;17.48;74.35;100401.94;5399319;32;34545;-66
2022/09/01 04:48:37;;;;;;;;;;;;;;;16.98;75.23;100411.44;5409164;32;34485;-73
2022/09/01 04:51:40;;;;;;;;;;;;;;;17.32;75.91;100408.28;5385669;32;36756;-67
2022/09/01 04:54:43;;;;;;;;;;;;;;;16.92;76.73;100402.06;5387662;32;34270;-75
2022/09/01 04:57:46;;;;;;;;;;;;;;;16.57;77.99;100403.47;5413559;32;34758;-73
2022/09/01 05:00:50;;;;;;;;;;;;;;;16.22;81.42;100402.06;5390351;32;35603;-74
2022/09/01 05:04:00;;;;;;;;;;;;;;;17.01;77.89;100403.28;5380798;32;33699;-74
2022/09/01 05:07:04;;;;;;;;;;;;;;;17.04;77.00;100403.06;5393349;32;44494;-69
2022/09/01 05:10:06;;;;;;;;;;;;;;;16.38;78.70;100403.78;5401944;32;34188;-74
2022/09/01 05:13:11;;;;;;;;;;;;;;;16.64;79.20;100415.41;5395003;32;34705;-75
2022/09/01 05:16:14;;;;;;;;;;;;;;;16.87;78.49;100411.28;5387919;32;34444;-66
2022/09/01 05:19:19;;;;;;;;;;;;;;;17.36;77.67;100405.41;5408612;32;35593;-76
2022/09/01 05:22:21;;;;;;;;;;;;;;;17.86;74.76;100405.50;5387964;32;35509;-74
2022/09/01 05:25:24;;;;;;;;;;;;;;;17.70;76.97;100412.78;5401669;32;34177;-74
2022/09/01 05:28:26;;;;;;;;;;;;;;;17.56;75.74;100410.22;5380784;32;34365;-68
2022/09/01 05:31:33;;;;;;;;;;;;;;;18.12;75.14;100418.81;5393965;32;44758;-73
2022/09/01 05:34:37;;;;;;;;;;;;;;;17.23;79.58;100430.13;5403211;32;35508;-71
2022/09/01 05:37:40;;;;;;;;;;;;;;;16.89;79.72;100420.03;5384954;32;35888;-76
2022/09/01 05:40:42;;;;;;;;;;;;;;;17.08;79.24;100420.53;5413065;32;34354;-76
2022/09/01 05:43:45;;;;;;;;;;;;;;;16.48;80.09;100421.66;5388962;32;34642;-79
2022/09/01 05:46:48;;;;;;;;;;;;;;;17.36;79.80;100408.06;5396508;32;35415;-81
2022/09/01 05:49:52;;;;;;;;;;;;;;;17.17;79.34;100409.28;5387422;32;34443;-73
2022/09/01 05:52:54;;;;;;;;;;;;;;;17.69;76.69;100416.41;5407013;32;33385;-77
2022/09/01 05:55:57;;;;;;;;;;;;;;;16.76;78.45;100412.00;5397330;32;36264;-78
2022/09/01 05:59:01;;;;;;;;;;;;;;;17.59;76.41;100424.16;5403119;32;46211;-74
2022/09/01 06:02:24;;;;;;;;;;;;;;;17.26;77.71;100426.41;5386303;32;34672;-79
2022/09/01 06:05:27;;;;;;;;;;;;;;;18.18;73.24;100418.38;5389812;32;35073;-90
2022/09/01 06:08:32;;;;;;;;;;;;;;;18.38;72.87;100417.81;5399599;32;44591;-79
2022/09/01 06:11:36;;;;;;;;;;;;;;;17.87;74.83;100439.12;5398993;32;37305;-67
2022/09/01 06:14:38;;;;;;;;;;;;;;;17.86;73.74;100428.59;5406083;32;33594;-72
2022/09/01 06:17:40;;;;;;;;;;;;;;;17.42;75.61;100439.53;5416004;32;35231;-72
2022/09/01 06:20:43;;;;;;;;;;;;;;;16.90;77.18;100429.69;5399306;32;34626;-84
2022/09/01 06:23:45;;;;;;;;;;;;;;;17.57;72.82;100433.19;5402441;32;34067;-77
2022/09/01 06:26:47;;;;;;;;;;;;;;;17.03;73.95;100419.97;5373811;32;34391;-80
2022/09/01 06:29:52;;;;;;;;;;;;;;;17.21;74.24;100421.41;5398933;32;34341;-75
2022/09/01 06:32:54;;;;;;;;;;;;;;;17.47;72.40;100429.47;5413383;32;34300;-76
2022/09/01 06:35:56;;;;;;;;;;;;;;;17.08;73.40;100431.16;5385804;32;35108;-74
2022/09/01 06:39:01;;;;;;;;;;;;;;;16.86;75.16;100430.81;5413431;32;45381;-67
2022/09/01 06:42:03;;;;;;;;;;;;;;;16.87;75.68;100429.87;5387875;32;35257;-73
2022/09/01 06:45:09;;;;;;;;;;;;;;;16.88;74.82;100439.56;5406872;32;34269;-74
2022/09/01 06:48:15;;;;;;;;;;;;;;;17.30;74.14;100436.72;5392580;32;34801;-77
2022/09/01 06:51:21;;;;;;;;;;;;;;;16.54;78.73;100439.00;5397311;32;36258;-66
2022/09/01 06:54:24;;;;;;;;;;;;;;;17.48;74.44;100439.12;5403060;32;34392;-68
2022/09/01 06:57:28;;;;;;;;;;;;;;;16.60;75.92;100445.72;5388404;32;38963;-67
2022/09/01 07:00:50;;;;;;;;;;;;;;;17.28;73.85;100440.47;5388457;32;34241;-69
2022/09/01 07:03:54;;;;;;;;;;;;;;;17.40;74.55;100452.09;5368030;32;45220;-65
2022/09/01 07:06:59;;;;;;;;;;;;;;;18.41;71.48;100446.84;5393392;32;43052;-82
2022/09/01 07:10:21;;;;;;;;;;;;;;;18.20;70.28;100442.19;5397424;32;36592;-66
2022/09/01 07:13:24;;;;;;;;;;;;;;;17.97;70.09;100451.75;5396362;32;34160;-73
2022/09/01 07:16:27;;;;;;;;;;;;;;;17.63;71.47;100462.00;5399336;32;35595;-78
2022/09/01 07:19:49;;;;;;;;;;;;;;;17.62;71.36;100468.28;5383651;32;35805;-68
2022/09/01 07:22:52;;;;;;;;;;;;;;;18.60;68.79;100462.38;5398933;32;35746;-80
2022/09/01 07:26:10;;;;;;;;;;;;;;;18.38;67.75;100465.72;5397457;32;35600;-79
2022/09/01 07:29:12;;;;;;;;;;;;;;;18.13;71.43;100465.72;5390448;32;32895;-82
2022/09/01 07:32:15;;;;;;;;;;;;;;;17.88;68.53;100463.91;5404079;32;34409;-67
2022/09/01 07:35:38;;;;;;;;;;;;;;;18.27;69.85;100459.44;5390177;32;37308;-68
2022/09/01 07:39:00;;;;;;;;;;;;;;;18.18;68.59;100460.94;5391713;32;44834;-66
2022/09/01 07:42:23;;;;;;;;;;;;;;;19.07;68.19;100451.97;5401267;32;34712;-72
2022/09/01 07:45:46;;;;;;;;;;;;;;;18.21;68.78;100466.03;5386736;32;34871;-82
2022/09/01 07:48:49;;;;;;;;;;;;;;;18.66;69.17;100469.06;5408575;32;35862;-67
2022/09/01 07:52:11;;;;;;;;;;;;;;;19.25;63.72;100463.91;5390543;32;34710;-79
2022/09/01 07:55:15;;;;;;;;;;;;;;;18.88;63.89;100466.63;5388136;32;33938;-80
2022/09/01 07:58:21;;;;;;;;;;;;;;;18.98;63.26;100461.47;5410824;32;34476;-66
2022/09/01 08:01:24;;;;;;;;;;;;;;;18.65;62.63;100472.69;5382932;32;35455;-68
2022/09/01 08:04:27;;;;;;;;;;;;;;;19.06;61.52;100468.88;5402532;32;36089;-66
2022/09/01 08:07:28;;;;;;;;;;;;;;;19.09;61.94;100460.69;5398860;32;46185;-64
2022/09/01 08:10:31;;;;;;;;;;;;;;;18.57;64.92;100467.06;5396062;32;34857;-80
2022/09/01 08:13:33;;;;;;;;;;;;;;;18.59;62.61;100473.12;5410205;32;35474;-80
2022/09/01 08:16:42;;;;;;;;;;;;;;;18.44;61.95;100466.25;5388600;32;34056;-71
2022/09/01 08:19:53;;;;;;;;;;;;;;;19.33;60.40;100464.22;5395987;32;34730;-64
2022/09/01 08:22:55;;;;;;;;;;;;;;;19.36;58.96;100460.44;5384840;32;35655;-64
2022/09/01 08:25:57;;;;;;;;;;;;;;;18.92;60.79;100465.41;5407122;32;34373;-66
2022/09/01 08:28:59;;;;;;;;;;;;;;;17.94;63.26;100468.78;5381563;32;44787;-66
2022/09/01 08:32:01;;;;;;;;;;;;;;;18.63;64.46;100466.66;5382906;32;33675;-67
2022/09/01 08:35:03;;;;;;;;;;;;;;;18.56;61.60;100476.88;5396341;32;34264;-70
2022/09/01 08:38:06;;;;;;;;;;;;;;;18.90;63.02;100472.69;5388136;32;34578;-70
2022/09/01 08:41:30;;;;;;;;;;;;;;;18.99;61.11;100472.97;5398945;32;34814;-87
2022/09/01 08:44:39;;;;;;;;;;;;;;;19.66;58.72;100455.53;5393352;32;44426;-87
2022/09/01 08:47:41;;;;;;;;;;;;;;;20.08;56.55;100460.34;5386269;32;35607;-76
2022/09/01 08:51:13;;;;;;;;;;;;;;;20.27;56.51;100468.59;5394254;32;44887;-64
2022/09/01 08:54:26;;;;;;;;;;;;;;;20.12;55.31;100470.66;5385057;32;33843;-72
2022/09/01 08:57:34;;;;;;;;;;;;;;;21.28;54.17;100465.84;5399998;32;43178;-70
2022/09/01 09:00:41;;;;;;;;;;;;;;;20.36;52.11;100467.06;5395207;32;34131;-75
2022/09/01 09:03:58;;;;;;;;;;;;;;;20.79;52.50;100467.16;5364760;32;36207;-68
2022/09/01 09:07:04;;;;;;;;;;;;;;;21.00;51.79;100461.94;5398486;32;43692;-67
2022/09/01 09:10:06;;;;;;;;;;;;;;;22.17;50.81;100460.09;5381191;32;34423;-67
2022/09/01 09:13:08;;;;;;;;;;;;;;;19.90;54.78;100460.81;5401813;32;36741;-68
2022/09/01 09:16:13;;;;;;;;;;;;;;;21.27;50.06;100462.34;5382695;32;34416;-67
2022/09/01 09:19:18;;;;;;;;;;;;;;;21.41;51.63;100466.56;5394490;32;34370;-64
2022/09/01 09:22:20;;;;;;;;;;;;;;;19.93;54.07;100470.38;5392816;32;34250;-66
2022/09/01 09:25:23;;;;;;;;;;;;;;;21.26;52.45;100466.00;5392162;32;34327;-66
2022/09/01 09:28:25;;;;;;;;;;;;;;;22.04;50.44;100458.59;5385522;32;35592;-69
2022/09/01 09:31:28;;;;;;;;;;;;;;;20.87;52.38;100446.06;5384505;32;36447;-68
2022/09/01 09:34:36;;;;;;;;;;;;;;;21.32;53.85;100453.97;5387125;32;34410;-73
2022/09/01 09:37:39;;;;;;;;;;;;;;;21.10;54.50;100450.34;5398251;32;35583;-65
2022/09/01 09:40:53;;;;;;;;;;;;;;;20.84;54.12;100451.63;5388890;32;34504;-68
2022/09/01 09:44:17;;;;;;;;;;;;;;;21.17;54.54;100441.84;5402646;32;35892;-71
2022/09/01 09:47:52;;;;;;;;;;;;;;;20.55;54.59;100451.31;5378788;32;34319;-71
2022/09/01 09:50:54;;;;;;;;;;;;;;;21.42;51.11;100441.53;5383484;32;36440;-71
2022/09/01 09:54:09;;;;;;;;;;;;;;;21.10;51.04;100436.16;5387577;32;35122;-71
2022/09/01 09:57:14;;;;;;;;;;;;;;;20.49;53.12;100430.44;5385749;32;34428;-67
2022/09/01 10:00:27;;;;;;;;;;;;;;;21.26;49.95;100430.41;5406547;32;34318;-71
2022/09/01 10:03:35;;;;;;;;;;;;;;;21.29;48.81;100428.34;5360548;32;45054;-69
2022/09/01 10:06:45;;;;;;;;;;;;;;;21.63;48.61;100429.00;5387791;32;36778;-67
2022/09/01 10:09:48;;;;;;;;;;;;;;;22.20;47.06;100423.34;5386146;32;34271;-67
2022/09/01 10:12:53;;;;;;;;;;;;;;;22.53;45.66;100420.37;5387353;32;34254;-68
2022/09/01 10:15:56;;;;;;;;;;;;;;;21.97;46.68;100419.97;5402928;32;35482;-83
2022/09/01 10:19:00;;;;;;;;;;;;;;;20.40;49.71;100423.97;5380198;32;44576;-80
2022/09/01 10:22:02;;;;;;;;;;;;;;;21.18;49.29;100431.00;5396164;32;36635;-80
2022/09/01 10:25:05;;;;;;;;;;;;;;;20.72;49.89;100426.75;5383195;32;34190;-74
2022/09/01 10:28:10;;;;;;;;;;;;;;;21.10;48.73;100420.97;5401959;32;34414;-66
2022/09/01 10:31:14;;;;;;;;;;;;;;;21.72;48.52;100418.53;5385109;32;34494;-89
2022/09/01 10:34:16;;;;;;;;;;;;;;;22.63;46.11;100409.69;5394940;32;34452;-88
2022/09/01 10:37:21;;;;;;;;;;;;;;;23.04;44.47;100413.19;5413518;32;34375;-84
2022/09/01 10:40:27;;;;;;;;;;;;;;;22.82;45.06;100416.94;5391382;32;35060;-84
2022/09/01 10:43:42;;;;;;;;;;;;;;;21.98;45.59;100416.31;5415697;32;43354;-74
2022/09/01 10:46:44;;;;;;;;;;;;;;;23.01;44.32;100398.25;5403075;32;35753;-74
2022/09/01 10:49:51;;;;;;;;;;;;;;;23.75;41.34;100390.44;5391938;32;34367;-75
2022/09/01 10:52:56;;;;;;;;;;;;;;;23.73;40.60;100402.34;5401291;32;34300;-74
2022/09/01 10:56:07;;;;;;;;;;;;;;;24.63;38.52;100407.13;5385810;32;45015;-73
2022/09/01 10:59:25;;;;;;;;;;;;;;;24.17;38.24;100402.63;5399744;32;36696;-81
2022/09/01 11:02:41;;;;;;;;;;;;;;;23.69;38.03;100403.59;5380681;32;37673;-71
2022/09/01 11:05:56;;;;;;;;;;;;;;;24.11;36.35;100405.91;5388472;32;35549;-70
2022/09/01 11:09:18;;;;;;;;;;;;;;;24.30;35.94;100392.41;5400633;32;34831;-70
2022/09/01 11:12:24;;;;;;;;;;;;;;;22.97;37.51;100388.78;5391056;32;34713;-71
2022/09/01 11:15:32;;;;;;;;;;;;;;;24.17;36.05;100392.75;5396861;32;44196;-71
2022/09/01 11:18:34;;;;;;;;;;;;;;;23.72;36.09;100396.13;5385641;32;34161;-71
2022/09/01 11:21:38;;;;;;;;;;;;;;;24.43;33.96;100392.09;5398579;32;34732;-81
2022/09/01 11:24:40;;;;;;;;;;;;;;;24.71;34.03;100385.69;5402726;32;35477;-87
2022/09/01 11:27:48;;;;;;;;;;;;;;;24.37;33.88;100385.47;5395198;32;35778;-86
2022/09/01 11:30:53;;;;;;;;;;;;;;;25.18;32.42;100390.91;5400943;32;34315;-71
2022/09/01 11:33:59;;;;;;;;;;;;;;;25.30;31.54;100389.69;5383101;32;36073;-73
2022/09/01 11:37:01;;;;;;;;;;;;;;;25.23;32.38;100387.75;5399761;32;44421;-76
2022/09/01 11:40:07;;;;;;;;;;;;;;;24.55;33.42;100389.06;5393888;32;36341;-78
2022/09/01 11:43:10;;;;;;;;;;;;;;;25.64;31.91;100383.59;5385852;32;34671;-72
2022/09/01 11:46:20;;;;;;;;;;;;;;;24.89;31.96;100387.59;5399545;32;34487;-73
2022/09/01 11:49:27;;;;;;;;;;;;;;;24.30;32.56;100382.50;5386524;32;34668;-70
2022/09/01 11:52:30;;;;;;;;;;;;;;;24.85;31.80;100374.44;5402803;32;44330;-71
2022/09/01 11:55:32;;;;;;;;;;;;;;;23.65;33.88;100375.38;5395792;32;34769;-71
2022/09/01 11:58:38;;;;;;;;;;;;;;;23.98;34.27;100379.37;5386722;32;34956;-74
2022/09/01 12:01:40;;;;;;;;;;;;;;;23.84;33.96;100371.81;5398447;32;35465;-72
2022/09/01 12:04:43;;;;;;;;;;;;;;;24.88;32.52;100372.44;5390523;32;35033;-72
2022/09/01 12:07:45;;;;;;;;;;;;;;;26.21;29.63;100362.37;5399581;32;34122;-75
2022/09/01 12:10:47;;;;;;;;;;;;;;;25.05;31.62;100364.44;5387160;32;35592;-71
2022/09/01 12:13:55;;;;;;;;;;;;;;;25.89;30.95;100366.63;5398642;32;35013;-74
2022/09/01 12:16:59;;;;;;;;;;;;;;;28.41;27.74;100353.56;5386346;32;46201;-74
2022/09/01 12:20:20;;;;;;;;;;;;;;;29.10;25.38;100358.06;5386736;32;44732;-80
2022/09/01 12:23:33;;;;;;;;;;;;;;;27.59;26.31;100358.31;5398269;32;44490;-76
2022/09/01 12:26:35;;;;;;;;;;;;;;;27.32;26.33;100344.16;5397407;32;34594;-77
2022/09/01 12:29:37;;;;;;;;;;;;;;;27.49;26.34;100351.22;5412684;32;34244;-72
2022/09/01 12:32:39;;;;;;;;;;;;;;;27.79;26.14;100341.59;5386497;32;34887;-71
2022/09/01 12:35:42;;;;;;;;;;;;;;;27.68;26.43;100346.47;5401400;32;34494;-79
2022/09/01 12:38:44;;;;;;;;;;;;;;;27.80;26.58;100355.94;5397222;32;34574;-77
2022/09/01 12:42:00;;;;;;;;;;;;;;;28.37;25.70;100344.97;5395276;32;34176;-77
2022/09/01 12:45:03;;;;;;;;;;;;;;;29.16;24.44;100347.53;5400295;32;44692;-77
2022/09/01 12:48:05;;;;;;;;;;;;;;;28.83;24.77;100342.34;5399601;32;34191;-67
2022/09/01 12:51:18;;;;;;;;;;;;;;;29.81;23.27;100339.66;5398385;32;34622;-67
2022/09/01 12:54:24;;;;;;;;;;;;;;;30.29;22.58;100337.44;5397038;32;34853;-70
2022/09/01 12:57:28;;;;;;;;;;;;;;;32.37;20.42;100327.16;5379647;32;35421;-76
2022/09/01 13:00:31;;;;;;;;;;;;;;;34.61;17.48;100319.13;5394293;32;46376;-75
2022/09/01 13:03:33;;;;;;;;;;;;;;;32.46;19.61;100327.81;5379098;32;34047;-73
2022/09/01 13:06:36;;;;;;;;;;;;;;;30.10;22.34;100340.75;5415736;32;35579;-73
2022/09/01 13:09:37;;;;;;;;;;;;;;;29.47;22.51;100326.62;5390129;32;34208;-77
2022/09/01 13:12:40;;;;;;;;;;;;;;;27.00;26.33;100343.09;5397960;32;34071;-71
2022/09/01 13:15:49;;;;;;;;;;;;;;;27.98;24.74;100331.41;5395866;32;34246;-72
2022/09/01 13:18:51;;;;;;;;;;;;;;;27.13;24.82;100331.00;5388506;32;35496;-69
2022/09/01 13:22:13;;;;;;;;;;;;;;;25.60;26.95;100331.91;5400439;32;34579;-69
2022/09/01 13:25:17;;;;;;;;;;;;;;;25.31;27.58;100342.97;5394679;32;34440;-77
2022/09/01 13:28:23;;;;;;;;;;;;;;;25.97;27.06;100338.03;5414006;32;34722;-69
2022/09/01 13:31:30;;;;;;;;;;;;;;;26.50;26.19;100335.09;5409493;32;45253;-69
2022/09/01 13:34:32;;;;;;;;;;;;;;;25.38;27.43;100343.19;5386609;32;34260;-76
2022/09/01 13:37:34;;;;;;;;;;;;;;;25.17;28.16;100340.81;5400854;32;34062;-69
2022/09/01 13:40:36;;;;;;;;;;;;;;;25.44;27.96;100341.69;5387541;32;35360;-74
2022/09/01 13:43:38;;;;;;;;;;;;;;;25.24;27.98;100349.09;5402813;32;35604;-65
2022/09/01 13:46:41;;;;;;;;;;;;;;;25.36;27.65;100339.78;5390427;32;34196;-66
2022/09/01 13:50:03;;;;;;;;;;;;;;;25.82;26.89;100354.78;5400703;32;45050;-65
2022/09/01 13:53:08;;;;;;;;;;;;;;;25.29;28.01;100342.25;5404940;32;35959;-66
2022/09/01 13:56:10;;;;;;;;;;;;;;;25.88;26.68;100340.66;5387785;32;34440;-66
2022/09/01 13:59:12;;;;;;;;;;;;;;;25.60;27.87;100336.44;5394693;32;35488;-67
2022/09/01 14:02:13;;;;;;;;;;;;;;;25.35;28.74;100338.09;5364734;32;37610;-71
2022/09/01 14:05:16;;;;;;;;;;;;;;;25.07;28.95;100348.97;5391001;32;36011;-71
2022/09/01 14:08:19;;;;;;;;;;;;;;;26.09;26.98;100343.00;5383532;32;34690;-71
2022/09/01 14:11:21;;;;;;;;;;;;;;;25.71;27.92;100340.72;5381004;32;35946;-72
2022/09/01 14:14:23;;;;;;;;;;;;;;;26.34;26.25;100335.84;5398352;32;34164;-66
2022/09/01 14:17:25;;;;;;;;;;;;;;;25.07;28.24;100357.06;5388972;32;35687;-65
2022/09/01 14:20:30;;;;;;;;;;;;;;;25.74;28.16;100349.34;5405658;32;42862;-65
2022/09/01 14:23:37;;;;;;;;;;;;;;;26.87;26.42;100340.06;5386209;32;35103;-66
2022/09/01 14:26:40;;;;;;;;;;;;;;;26.08;28.16;100352.09;5399003;32;34563;-65
2022/09/01 14:29:41;;;;;;;;;;;;;;;25.60;28.65;100342.66;5396349;32;34913;-71
2022/09/01 14:32:42;;;;;;;;;;;;;;;24.95;29.44;100344.81;5403555;32;35584;-66
2022/09/01 14:35:45;;;;;;;;;;;;;;;25.82;28.76;100353.94;5407325;32;34711;-72
2022/09/01 14:38:48;;;;;;;;;;;;;;;26.04;28.17;100344.47;5391647;32;34473;-66
2022/09/01 14:41:50;;;;;;;;;;;;;;;25.73;28.94;100347.66;5401251;32;34973;-66
2022/09/01 14:44:52;;;;;;;;;;;;;;;25.14;27.83;100346.53;5365630;32;800877;-71
2022/09/01 14:47:55;;;;;;;;;;;;;;;25.19;28.54;100344.22;5397519;32;36019;-71
2022/09/01 14:50:57;;;;;;;;;;;;;;;24.88;26.93;100341.03;5396320;32;35374;-65
2022/09/01 14:54:00;;;;;;;;;;;;;;;25.91;26.54;100348.44;5388272;32;44578;-71
2022/09/01 14:57:02;;;;;;;;;;;;;;;25.77;27.13;100345.50;5413818;32;35271;-65
2022/09/01 15:00:24;;;;;;;;;;;;;;;25.32;27.92;100354.56;5385368;32;35997;-66
2022/09/01 15:03:26;;;;;;;;;;;;;;;25.50;27.70;100354.53;5386901;32;34586;-66
2022/09/01 15:06:29;;;;;;;;;;;;;;;24.97;28.27;100352.69;5377647;32;44518;-67
2022/09/01 15:09:31;;;;;;;;;;;;;;;24.95;27.55;100354.72;5385752;32;34188;-66
2022/09/01 15:12:33;;;;;;;;;;;;;;;24.97;27.98;100352.69;5410995;32;34863;-66
2022/09/01 15:15:35;;;;;;;;;;;;;;;25.71;26.79;100349.66;5394882;32;34776;-67
2022/09/01 15:18:37;;;;;;;;;;;;;;;24.57;28.54;100353.97;5395485;32;34647;-73
2022/09/01 15:21:40;;;;;;;;;;;;;;;24.78;29.11;100353.69;5381594;32;34999;-72
2022/09/01 15:24:42;;;;;;;;;;;;;;;25.31;27.47;100353.72;5408818;32;36017;-66
2022/09/01 15:27:45;;;;;;;;;;;;;;;25.73;27.03;100354.91;5402418;32;35783;-71
2022/09/01 15:30:46;;;;;;;;;;;;;;;25.32;26.92;100360.78;5394207;32;34702;-65
2022/09/01 15:33:48;;;;;;;;;;;;;;;25.16;27.84;100352.56;5409239;32;35698;-66
2022/09/01 15:36:50;;;;;;;;;;;;;;;25.55;26.73;100349.53;5391920;32;34716;-72
2022/09/01 15:39:52;;;;;;;;;;;;;;;25.60;26.26;100349.91;5410484;32;35659;-65
2022/09/01 15:42:54;;;;;;;;;;;;;;;25.65;25.59;100350.28;5393936;32;35427;-66
2022/09/01 15:45:57;;;;;;;;;;;;;;;24.80;26.83;100347.19;5407579;32;35121;-65
2022/09/01 15:48:59;;;;;;;;;;;;;;;25.47;25.69;100346.78;5393751;32;45213;-66
2022/09/01 15:52:02;;;;;;;;;;;;;;;25.32;26.41;100352.72;5386237;32;37246;-66
2022/09/01 15:55:04;;;;;;;;;;;;;;;25.61;25.75;100352.44;5401607;32;35523;-65